This is the latest recevied weather packets stored in our database for station/object WP3OF-3. If no packets are shown the sender has not sent any weather packets the latest 10 day(s).
| Time | Temp. | Humidity | Pressure | Rain* | Wind** | Luminosity | Snow |
|---|---|---|---|---|---|---|---|
| 1777642850 | 26.11° C | 80% | 1018.1 hPa | 0 mm | - | - | - |
| 1777642548 | 26.11° C | 83% | 1018.2 hPa | 0 mm | - | - | - |
| 1777642244 | 26.11° C | 82% | 1018.3 hPa | 0 mm | - | - | - |
| 1777641941 | 26.11° C | 82% | 1018.1 hPa | 0 mm | - | - | - |
| 1777641637 | 26.11° C | 83% | 1018.1 hPa | 0 mm | - | - | - |
| 1777641332 | 25.56° C | 85% | 1018.2 hPa | 0 mm | - | - | - |
| 1777641027 | 24.44° C | 86% | 1018.1 hPa | 0 mm | - | - | - |
| 1777638600 | 22.78° C | 97% | 1017.5 hPa | 0 mm | - | - | - |
| 1777638297 | 22.78° C | 97% | 1017.4 hPa | 0 mm | - | - | - |
| 1777637993 | 22.78° C | 97% | 1017.4 hPa | 0 mm | - | - | - |
| 1777637083 | 22.22° C | 97% | 1017.1 hPa | 0 mm | - | - | - |
| 1777636779 | 22.22° C | 97% | 1017.1 hPa | 0 mm | - | - | - |
| 1777636476 | 21.67° C | 97% | 1017.1 hPa | 0 mm | - | - | - |
| 1777636172 | 21.67° C | 97% | 1016.9 hPa | 0 mm | - | - | - |
| 1777635867 | 21.67° C | 97% | 1016.9 hPa | 0 mm | - | - | - |
| 1777635563 | 21.11° C | 97% | 1016.8 hPa | 0 mm | - | - | - |
| 1777635260 | 21.11° C | 97% | 1016.7 hPa | 0 mm | - | - | - |
| 1777634957 | 21.11° C | 97% | 1016.9 hPa | 0 mm | - | - | - |
| 1777634654 | 21.11° C | 97% | 1016.7 hPa | 0 mm | - | - | - |
| 1777634351 | 21.11° C | 97% | 1016.5 hPa | 0 mm | - | - | - |
| 1777634048 | 20.56° C | 97% | 1016.3 hPa | 0 mm | - | - | - |
| 1777633744 | 20.56° C | 97% | 1016.6 hPa | 0 mm | - | - | - |
| 1777633443 | 20.56° C | 97% | 1016.6 hPa | 0 mm | - | - | - |
| 1777633140 | 20.56° C | 97% | 1016.5 hPa | 0 mm | - | - | - |
| 1777632835 | 20.56° C | 97% | 1016.6 hPa | 0 mm | - | - | - |
* Rain latest hour (hover to see other rain measurements)
** Current wind speed in m/s (hover to see current wind gust speed)